Time;durP1;ratioP1;P1;durP2;ratioP2;P2;SDS_P1;SDS_P2;PMS_P1;PMS_P2;Temp;Humidity;BMP_temperature;BMP_pressure;BME280_temperature;BME280_humidity;BME280_pressure;Samples;Min_cycle;Max_cycle;Signal;HPM_P1;HPM_P2
2022/07/09 00:02:18;;;;;;;6.95;5.65;;;29.20;99.90;;;;;;4972258;28;20027;-46
2022/07/09 00:04:44;;;;;;;5.72;4.75;;;29.20;99.90;;;;;;4972357;28;20085;-46
2022/07/09 00:07:09;;;;;;;6.43;5.00;;;29.20;99.90;;;;;;4972093;28;20106;-45
2022/07/09 00:09:35;;;;;;;5.63;4.85;;;29.20;99.90;;;;;;4972213;28;20123;-46
2022/07/09 00:12:01;;;;;;;5.55;5.00;;;29.10;99.90;;;;;;4972557;28;20027;-46
2022/07/09 00:14:27;;;;;;;5.18;4.60;;;29.10;99.90;;;;;;4973212;28;20161;-46
2022/07/09 00:16:52;;;;;;;6.20;4.57;;;29.10;99.90;;;;;;4978953;28;20023;-46
2022/07/09 00:19:18;;;;;;;6.22;5.00;;;29.10;99.90;;;;;;4978878;28;20054;-46
2022/07/09 00:21:44;;;;;;;5.45;4.43;;;29.10;99.90;;;;;;4978694;28;20034;-45
2022/07/09 00:24:10;;;;;;;6.13;4.72;;;29.10;99.90;;;;;;4978796;28;20030;-45
2022/07/09 00:26:35;;;;;;;5.38;4.70;;;29.10;99.90;;;;;;4978590;28;20592;-44
2022/07/09 00:29:01;;;;;;;5.88;5.30;;;29.10;99.90;;;;;;4978496;28;20089;-44
2022/07/09 00:31:27;;;;;;;5.72;5.10;;;29.10;99.90;;;;;;4978705;28;20023;-45
2022/07/09 00:33:54;;;;;;;5.93;5.07;;;29.10;99.90;;;;;;4978828;28;20057;-46
2022/07/09 00:36:20;;;;;;;6.18;5.00;;;29.10;99.90;;;;;;4978621;28;20428;-44
2022/07/09 00:38:45;;;;;;;6.50;4.57;;;29.10;99.90;;;;;;4961352;28;20074;-45
2022/07/09 00:41:11;;;;;;;5.25;4.75;;;29.10;99.90;;;;;;4978371;28;20421;-45
2022/07/09 00:43:37;;;;;;;4.78;4.30;;;29.10;99.90;;;;;;4978386;28;20030;-45
2022/07/09 00:46:03;;;;;;;5.03;4.47;;;29.10;99.90;;;;;;4978518;28;20058;-46
2022/07/09 00:48:28;;;;;;;5.70;4.82;;;29.10;99.90;;;;;;4978375;28;20061;-46
2022/07/09 00:50:54;;;;;;;6.65;4.90;;;29.10;99.90;;;;;;4978591;28;20078;-45
2022/07/09 00:53:24;;;;;;;5.72;4.90;;;29.10;99.90;;;;;;4978323;28;20031;-44
2022/07/09 00:55:51;;;;;;;4.75;4.25;;;29.10;99.90;;;;;;4978210;28;20030;-45
2022/07/09 00:58:19;;;;;;;6.45;5.07;;;29.10;99.90;;;;;;4978259;28;20027;-45
2022/07/09 01:00:45;;;;;;;5.45;4.32;;;29.10;99.90;;;;;;4978659;28;20043;-45
2022/07/09 01:03:11;;;;;;;5.35;4.38;;;29.10;99.90;;;;;;4978155;28;20039;-45
2022/07/09 01:05:37;;;;;;;5.43;4.43;;;29.10;99.90;;;;;;4978016;28;20027;-45
2022/07/09 01:08:08;;;;;;;9.05;4.93;;;29.10;99.90;;;;;;4978153;28;20035;-45
2022/07/09 01:10:35;;;;;;;4.35;3.95;;;29.10;99.90;;;;;;4978202;28;20039;-46
2022/07/09 01:13:02;;;;;;;5.78;4.47;;;29.00;99.90;;;;;;4978289;28;20042;-47
2022/07/09 01:15:28;;;;;;;4.90;3.85;;;29.10;99.90;;;;;;4978318;28;20038;-45
2022/07/09 01:17:55;;;;;;;7.00;4.03;;;29.10;99.90;;;;;;4978450;28;20031;-45
2022/07/09 01:20:31;;;;;;;5.07;4.20;;;29.10;99.90;;;;;;4978258;28;20077;-45
2022/07/09 01:22:58;;;;;;;5.55;4.60;;;29.10;99.90;;;;;;4978404;28;20279;-46
2022/07/09 01:25:37;;;;;;;4.90;4.35;;;29.10;99.90;;;;;;4978320;28;20037;-46
2022/07/09 01:28:07;;;;;;;6.80;4.35;;;29.10;99.90;;;;;;4974044;28;20508;-45
2022/07/09 01:30:35;;;;;;;4.90;4.00;;;29.00;99.90;;;;;;4974969;28;20612;-45
2022/07/09 01:33:01;;;;;;;5.78;4.47;;;29.10;99.90;;;;;;4975011;28;20046;-46
2022/07/09 01:35:27;;;;;;;5.28;4.40;;;29.00;99.90;;;;;;4975293;28;20023;-46
2022/07/09 01:37:53;;;;;;;4.40;3.80;;;29.00;99.90;;;;;;4974983;28;20425;-46
2022/07/09 01:40:20;;;;;;;4.78;3.80;;;29.00;99.90;;;;;;4975005;28;20046;-45
2022/07/09 01:42:47;;;;;;;4.85;3.97;;;29.00;99.90;;;;;;4957661;28;20031;-46
2022/07/09 01:45:14;;;;;;;4.68;3.70;;;29.00;99.90;;;;;;4974913;28;20499;-46
2022/07/09 01:47:40;;;;;;;4.63;3.70;;;29.00;99.90;;;;;;4974844;28;20139;-46
2022/07/09 01:50:07;;;;;;;4.47;3.85;;;29.00;99.90;;;;;;4974703;28;20046;-45
2022/07/09 01:52:33;;;;;;;5.00;3.70;;;29.00;99.90;;;;;;4974827;28;20109;-46
2022/07/09 01:54:58;;;;;;;5.00;4.30;;;29.00;99.90;;;;;;4974852;28;20035;-45
2022/07/09 01:57:24;;;;;;;5.05;3.70;;;29.00;99.90;;;;;;4974681;28;20393;-46
2022/07/09 01:59:50;;;;;;;4.22;3.78;;;29.00;99.90;;;;;;4990081;23;20054;-42
2022/07/09 02:02:16;;;;;;;4.85;3.85;;;29.00;99.90;;;;;;4974698;28;20085;-41
2022/07/09 02:04:41;;;;;;;3.92;3.50;;;29.00;99.90;;;;;;4974414;28;20019;-41
2022/07/09 02:07:07;;;;;;;4.95;3.33;;;29.00;99.90;;;;;;4974231;28;20847;-42
2022/07/09 02:09:33;;;;;;;4.30;3.25;;;29.00;99.90;;;;;;4974383;28;20049;-41
2022/07/09 02:11:59;;;;;;;4.95;4.03;;;29.00;99.90;;;;;;4974469;28;20030;-42
2022/07/09 02:14:24;;;;;;;4.07;3.10;;;29.00;99.90;;;;;;4974317;28;20035;-42
2022/07/09 02:16:50;;;;;;;4.05;3.63;;;29.00;99.90;;;;;;4974313;28;20030;-41
2022/07/09 02:19:16;;;;;;;4.55;3.47;;;29.00;99.90;;;;;;4974083;28;20026;-41
2022/07/09 02:21:41;;;;;;;4.10;3.70;;;29.00;99.90;;;;;;4974308;28;20384;-41
2022/07/09 02:24:07;;;;;;;3.50;3.20;;;29.00;99.90;;;;;;4974300;28;20111;-41
2022/07/09 02:26:33;;;;;;;6.40;3.38;;;29.00;99.90;;;;;;4974131;28;20031;-41
2022/07/09 02:28:59;;;;;;;4.22;3.50;;;29.00;99.90;;;;;;4974093;28;20094;-42
2022/07/09 02:31:26;;;;;;;4.65;3.80;;;28.90;99.90;;;;;;4956675;28;20082;-41
2022/07/09 02:33:53;;;;;;;4.13;3.53;;;29.00;99.90;;;;;;4974004;28;20030;-41
2022/07/09 02:36:19;;;;;;;3.67;3.22;;;29.00;99.90;;;;;;4974003;28;20046;-41
2022/07/09 02:38:44;;;;;;;3.70;3.17;;;28.90;99.90;;;;;;4973530;28;20476;-41
2022/07/09 02:41:10;;;;;;;3.95;3.55;;;29.00;99.90;;;;;;4973721;28;20041;-41
2022/07/09 02:43:36;;;;;;;4.07;3.63;;;28.90;99.90;;;;;;4973630;28;20041;-40
2022/07/09 02:46:03;;;;;;;4.65;3.28;;;28.90;99.90;;;;;;4956729;28;20042;-41
2022/07/09 02:48:29;;;;;;;;;;;28.90;99.90;;;;;;4974159;28;20366;-41
2022/07/09 02:50:55;;;;;;;3.80;3.28;;;28.90;99.90;;;;;;4973552;28;20073;-41
2022/07/09 02:53:21;;;;;;;3.53;3.15;;;28.90;99.90;;;;;;4973445;28;20037;-41
2022/07/09 02:55:47;;;;;;;3.60;3.28;;;28.90;99.90;;;;;;4973373;28;20042;-41
2022/07/09 02:58:13;;;;;;;4.85;3.28;;;28.90;99.90;;;;;;4973359;28;20469;-40
2022/07/09 03:00:40;;;;;;;3.15;2.83;;;28.90;99.90;;;;;;4973480;28;20069;-41
2022/07/09 03:03:06;;;;;;;3.58;3.08;;;28.90;99.90;;;;;;4973091;28;20572;-41
2022/07/09 03:05:32;;;;;;;3.75;2.90;;;28.90;99.90;;;;;;4955991;28;20496;-41
2022/07/09 03:07:58;;;;;;;2.95;2.55;;;28.90;99.90;;;;;;4973073;28;20027;-41
2022/07/09 03:10:24;;;;;;;3.20;2.85;;;28.90;99.90;;;;;;4972975;28;20094;-42
2022/07/09 03:12:50;;;;;;;3.17;2.83;;;28.90;99.90;;;;;;4973144;28;20355;-41
2022/07/09 03:15:17;;;;;;;3.47;2.90;;;28.90;99.90;;;;;;4973100;28;20230;-41
2022/07/09 03:17:43;;;;;;;;;;;28.90;99.90;;;;;;4973536;28;20027;-41
2022/07/09 03:20:10;;;;;;;3.38;2.88;;;28.90;99.90;;;;;;4973142;28;19912;-41
2022/07/09 03:22:36;;;;;;;3.95;3.30;;;28.90;99.90;;;;;;4973097;28;20023;-41
2022/07/09 03:25:02;;;;;;;4.18;3.40;;;28.90;99.90;;;;;;4973111;28;20050;-41
2022/07/09 03:27:28;;;;;;;3.42;2.70;;;28.90;99.90;;;;;;4972920;28;20055;-41
2022/07/09 03:29:54;;;;;;;3.45;2.53;;;28.90;99.90;;;;;;4972727;28;20050;-41
2022/07/09 03:32:20;;;;;;;3.28;2.60;;;28.80;99.90;;;;;;4955380;28;20023;-40
2022/07/09 03:34:45;;;;;;;3.13;2.67;;;28.90;99.90;;;;;;4972950;28;20026;-41
2022/07/09 03:37:11;;;;;;;3.25;2.50;;;28.90;99.90;;;;;;4955622;28;20031;-41
2022/07/09 03:39:37;;;;;;;3.40;2.42;;;28.90;99.90;;;;;;4972817;28;20034;-41
2022/07/09 03:42:05;;;;;;;3.53;2.80;;;28.90;99.90;;;;;;4973004;28;20488;-41
2022/07/09 03:44:31;;;;;;;5.07;2.92;;;28.90;99.90;;;;;;4972854;28;20109;-41
2022/07/09 03:46:56;;;;;;;4.03;3.28;;;28.80;99.90;;;;;;4972558;28;20022;-42
2022/07/09 03:49:22;;;;;;;3.78;2.90;;;28.80;99.90;;;;;;4972075;28;20039;-41
2022/07/09 03:51:48;;;;;;;2.60;2.38;;;28.80;99.90;;;;;;4972629;28;20484;-41
2022/07/09 03:54:14;;;;;;;2.88;2.58;;;28.80;99.90;;;;;;4972637;28;20041;-41
2022/07/09 03:56:40;;;;;;;4.75;2.85;;;28.80;99.90;;;;;;4972496;28;20031;-40
2022/07/09 03:59:09;;;;;;;3.28;2.97;;;28.80;99.90;;;;;;4973058;28;20022;-41
2022/07/09 04:01:34;;;;;;;3.13;2.75;;;28.90;99.90;;;;;;4972850;28;20058;-41
2022/07/09 04:04:00;;;;;;;3.17;2.88;;;28.90;99.90;;;;;;4955193;28;20031;-40
2022/07/09 04:06:26;;;;;;;4.13;2.97;;;28.80;99.90;;;;;;4972443;28;20414;-40
2022/07/09 04:08:52;;;;;;;3.20;2.53;;;28.80;99.90;;;;;;4972432;28;20105;-41
2022/07/09 04:11:18;;;;;;;2.90;2.47;;;28.80;99.90;;;;;;4972554;28;20552;-41
2022/07/09 04:13:43;;;;;;;3.42;2.75;;;28.80;99.90;;;;;;4955237;28;20417;-41
2022/07/09 04:16:09;;;;;;;3.17;2.55;;;28.80;99.90;;;;;;4954952;28;20097;-41
2022/07/09 04:18:35;;;;;;;2.25;2.05;;;28.80;99.90;;;;;;4972450;28;20027;-42
2022/07/09 04:21:01;;;;;;;3.92;2.70;;;28.80;99.90;;;;;;4972319;28;20026;-41
2022/07/09 04:23:28;;;;;;;3.55;2.40;;;28.80;99.90;;;;;;4972149;28;20085;-41
2022/07/09 04:25:54;;;;;;;2.75;2.40;;;28.80;99.90;;;;;;4972228;28;20058;-41
2022/07/09 04:28:20;;;;;;;3.22;2.47;;;28.80;99.90;;;;;;4972170;28;20027;-41
2022/07/09 04:30:48;;;;;;;3.05;2.38;;;28.80;99.90;;;;;;4972301;28;20038;-41
2022/07/09 04:33:14;;;;;;;3.30;2.40;;;28.80;99.90;;;;;;4972031;28;20023;-41
2022/07/09 04:35:40;;;;;;;2.95;2.30;;;28.80;99.90;;;;;;4972217;28;20085;-41
2022/07/09 04:38:06;;;;;;;3.55;2.75;;;28.80;99.90;;;;;;4972441;28;20027;-41
2022/07/09 04:40:32;;;;;;;4.15;2.63;;;28.80;99.90;;;;;;4972070;28;20030;-41
2022/07/09 04:42:57;;;;;;;4.72;3.15;;;28.80;99.90;;;;;;4972046;28;20022;-41
2022/07/09 04:45:23;;;;;;;3.22;2.40;;;28.80;99.90;;;;;;4972133;28;20023;-41
2022/07/09 04:47:49;;;;;;;3.65;2.65;;;28.80;99.90;;;;;;4971974;28;20150;-41
2022/07/09 04:50:15;;;;;;;2.92;2.60;;;28.80;99.90;;;;;;4971971;28;20038;-41
2022/07/09 04:52:41;;;;;;;3.03;2.47;;;28.80;99.90;;;;;;4972031;28;20425;-41
2022/07/09 04:55:07;;;;;;;2.60;1.98;;;28.80;99.90;;;;;;4972121;28;20035;-41
2022/07/09 04:57:33;;;;;;;2.67;2.20;;;28.70;99.90;;;;;;4972082;28;20141;-41
2022/07/09 05:00:04;;;;;;;2.92;2.40;;;28.70;99.90;;;;;;4971794;28;20716;-41
2022/07/09 05:02:30;;;;;;;4.68;2.55;;;28.70;99.90;;;;;;4975346;28;20345;-41
2022/07/09 05:04:55;;;;;;;2.95;2.25;;;28.70;99.90;;;;;;4975798;28;20117;-41
2022/07/09 05:07:21;;;;;;;3.17;2.50;;;28.70;99.90;;;;;;4975663;28;20054;-41
2022/07/09 05:09:47;;;;;;;3.92;2.78;;;28.70;99.90;;;;;;4975567;28;20062;-41
2022/07/09 05:12:13;;;;;;;3.88;2.63;;;28.70;99.90;;;;;;4975525;28;20424;-41
2022/07/09 05:14:40;;;;;;;3.95;2.53;;;28.70;99.90;;;;;;4975580;28;20027;-40
2022/07/09 05:17:06;;;;;;;3.05;2.20;;;28.70;99.90;;;;;;4975607;28;20085;-41
2022/07/09 05:19:32;;;;;;;3.22;2.78;;;28.70;99.90;;;;;;4975262;28;20031;-40
2022/07/09 05:21:58;;;;;;;3.17;2.22;;;28.70;99.90;;;;;;4975415;28;20058;-40
2022/07/09 05:24:24;;;;;;;3.53;2.67;;;28.70;99.90;;;;;;4975347;28;20027;-40
2022/07/09 05:26:49;;;;;;;2.67;2.38;;;28.70;99.90;;;;;;4975364;28;20027;-41
2022/07/09 05:29:16;;;;;;;3.75;2.53;;;28.70;99.90;;;;;;4974883;28;20038;-41
2022/07/09 05:31:43;;;;;;;3.47;2.30;;;28.70;99.90;;;;;;4975164;28;20034;-41
2022/07/09 05:34:08;;;;;;;3.17;2.85;;;28.70;99.90;;;;;;4975231;28;20027;-41
2022/07/09 05:36:34;;;;;;;3.88;2.95;;;28.70;99.90;;;;;;4957700;28;20089;-41
2022/07/09 05:39:01;;;;;;;3.38;2.65;;;28.70;99.90;;;;;;4974931;28;20081;-41
2022/07/09 05:41:27;;;;;;;4.18;2.60;;;28.70;99.90;;;;;;4975030;28;20030;-41
2022/07/09 05:43:53;;;;;;;3.58;2.85;;;28.70;99.90;;;;;;4974814;28;20023;-41
2022/07/09 05:46:20;;;;;;;3.83;2.58;;;28.70;99.90;;;;;;4974902;28;20023;-41
2022/07/09 05:48:46;;;;;;;3.17;2.70;;;28.70;99.90;;;;;;4974739;28;20169;-41
2022/07/09 05:51:12;;;;;;;3.25;2.80;;;28.70;99.90;;;;;;4957558;28;20118;-41
2022/07/09 05:53:38;;;;;;;4.20;2.50;;;28.70;99.90;;;;;;4974922;28;20019;-41
2022/07/09 05:56:04;;;;;;;4.00;2.63;;;28.70;99.90;;;;;;4974601;28;20034;-41
2022/07/09 05:58:30;;;;;;;3.20;2.60;;;28.70;99.90;;;;;;4974558;28;20366;-41
2022/07/09 06:00:56;;;;;;;4.93;3.45;;;28.70;99.90;;;;;;4974423;28;20121;-41
2022/07/09 06:03:22;;;;;;;3.42;2.67;;;28.70;99.90;;;;;;4974371;28;20027;-41
2022/07/09 06:05:47;;;;;;;3.58;2.72;;;28.70;99.90;;;;;;4957271;28;20473;-42
2022/07/09 06:08:13;;;;;;;4.05;2.95;;;28.70;99.90;;;;;;4974452;28;20363;-41
2022/07/09 06:10:39;;;;;;;4.57;2.83;;;28.70;99.90;;;;;;4974414;28;20121;-41
2022/07/09 06:13:05;;;;;;;3.05;2.67;;;28.70;99.90;;;;;;4973509;28;20081;-41
2022/07/09 06:15:30;;;;;;;4.82;2.97;;;28.70;99.90;;;;;;4974312;28;20037;-41
2022/07/09 06:17:56;;;;;;;3.30;2.80;;;28.70;99.90;;;;;;4974176;28;20384;-40
2022/07/09 06:20:22;;;;;;;4.35;3.08;;;28.70;99.90;;;;;;4974213;28;20070;-41
2022/07/09 06:22:48;;;;;;;3.83;3.20;;;28.70;99.90;;;;;;4973930;28;20106;-41
2022/07/09 06:25:14;;;;;;;3.58;2.60;;;28.70;99.90;;;;;;4973820;28;20027;-41
2022/07/09 06:27:40;;;;;;;3.78;2.85;;;28.70;99.90;;;;;;4974190;28;20034;-41
2022/07/09 06:30:07;;;;;;;4.18;3.10;;;28.70;99.90;;;;;;4973598;28;20508;-41
2022/07/09 06:32:32;;;;;;;4.05;2.83;;;28.70;99.90;;;;;;4956414;28;20031;-41
2022/07/09 06:34:58;;;;;;;4.05;2.72;;;28.70;99.90;;;;;;4973669;28;20039;-41
2022/07/09 06:37:24;;;;;;;3.50;2.83;;;28.70;99.90;;;;;;4973695;28;20480;-41
2022/07/09 06:39:50;;;;;;;4.18;2.88;;;28.70;99.90;;;;;;4973675;28;20034;-41
2022/07/09 06:42:17;;;;;;;4.57;2.90;;;28.80;99.90;;;;;;4973523;28;20034;-41
2022/07/09 06:44:43;;;;;;;;;;;28.70;99.90;;;;;;4974127;28;20030;-43
2022/07/09 06:47:11;;;;;;;4.30;2.80;;;28.80;99.90;;;;;;4973599;28;19906;-41
2022/07/09 06:49:36;;;;;;;3.65;3.25;;;28.80;99.90;;;;;;4973459;28;20039;-41
2022/07/09 06:52:03;;;;;;;3.55;2.95;;;28.80;99.90;;;;;;4973496;28;20030;-41
2022/07/09 06:54:29;;;;;;;4.38;3.38;;;28.80;99.90;;;;;;4973330;28;20033;-41
2022/07/09 06:56:56;;;;;;;4.70;3.78;;;28.80;99.90;;;;;;4973375;28;20027;-41
2022/07/09 06:59:23;;;;;;;3.72;2.67;;;28.80;99.90;;;;;;4973034;28;20027;-42
2022/07/09 07:01:49;;;;;;;4.38;3.17;;;28.80;99.90;;;;;;4973323;28;20034;-41
2022/07/09 07:04:16;;;;;;;3.60;3.15;;;28.80;99.90;;;;;;4973475;28;20361;-42
2022/07/09 07:06:42;;;;;;;;;;;28.80;99.90;;;;;;4973725;28;20038;-41
2022/07/09 07:09:08;;;;;;;4.70;3.33;;;28.80;99.90;;;;;;4972967;28;19918;-41
2022/07/09 07:11:35;;;;;;;3.20;2.88;;;28.80;99.90;;;;;;4973096;28;20388;-41
2022/07/09 07:14:01;;;;;;;4.57;2.90;;;28.80;99.90;;;;;;4972896;28;20026;-42
2022/07/09 07:16:27;;;;;;;3.72;2.95;;;28.80;99.90;;;;;;4973017;28;20027;-41
2022/07/09 07:18:53;;;;;;;5.63;3.03;;;28.80;99.90;;;;;;4973039;28;20031;-41
2022/07/09 07:21:19;;;;;;;3.92;3.47;;;28.80;99.90;;;;;;4972857;28;20070;-41
2022/07/09 07:23:45;;;;;;;5.43;3.72;;;28.80;99.90;;;;;;4972739;28;20027;-41
2022/07/09 07:26:10;;;;;;;3.53;2.63;;;28.80;99.90;;;;;;4972224;28;20073;-45
2022/07/09 07:28:36;;;;;;;4.15;2.83;;;28.80;99.90;;;;;;4972652;28;20503;-41
2022/07/09 07:31:02;;;;;;;4.18;3.00;;;28.80;99.90;;;;;;4972509;28;20047;-41
2022/07/09 07:33:28;;;;;;;3.85;2.80;;;28.80;99.90;;;;;;4972552;28;20027;-41
2022/07/09 07:35:54;;;;;;;3.97;2.95;;;28.80;99.90;;;;;;4972673;28;20026;-41
2022/07/09 07:38:19;;;;;;;3.92;2.63;;;28.80;99.90;;;;;;4972524;28;20067;-41
2022/07/09 07:40:45;;;;;;;4.68;3.40;;;28.80;99.90;;;;;;4972942;28;20026;-41
2022/07/09 07:43:11;;;;;;;4.03;2.90;;;28.90;99.90;;;;;;4972474;28;20365;-41
2022/07/09 07:45:37;;;;;;;3.00;2.60;;;28.80;99.90;;;;;;4972478;28;20618;-41
2022/07/09 07:48:03;;;;;;;3.20;2.50;;;28.90;99.90;;;;;;4972584;28;20031;-42
2022/07/09 07:50:29;;;;;;;3.72;3.13;;;28.90;99.90;;;;;;4972370;28;20480;-41
2022/07/09 07:52:56;;;;;;;2.80;2.53;;;28.90;99.90;;;;;;4972407;28;20432;-41
2022/07/09 07:55:22;;;;;;;4.13;2.63;;;28.90;99.90;;;;;;4972303;28;20088;-41
2022/07/09 07:57:48;;;;;;;4.20;3.05;;;28.90;99.90;;;;;;4972495;28;20031;-42
2022/07/09 08:00:14;;;;;;;4.72;3.03;;;28.90;99.90;;;;;;4972389;28;20452;-42
2022/07/09 08:02:40;;;;;;;3.63;3.08;;;28.90;99.90;;;;;;4972240;28;20018;-41
2022/07/09 08:05:07;;;;;;;3.20;2.45;;;28.90;99.90;;;;;;4972301;28;20026;-41
2022/07/09 08:07:32;;;;;;;4.22;3.17;;;28.90;99.90;;;;;;4972282;28;20098;-41
2022/07/09 08:09:58;;;;;;;5.25;3.47;;;28.90;99.90;;;;;;4972070;28;20186;-41
2022/07/09 08:12:24;;;;;;;3.58;3.00;;;28.90;99.90;;;;;;4972116;28;20492;-41
2022/07/09 08:14:50;;;;;;;4.15;2.90;;;28.90;99.90;;;;;;4971981;28;20023;-41
2022/07/09 08:17:16;;;;;;;4.13;3.38;;;28.90;99.90;;;;;;4972316;28;20040;-41
2022/07/09 08:19:42;;;;;;;3.45;2.75;;;28.90;99.90;;;;;;4972254;28;20031;-41
2022/07/09 08:22:07;;;;;;;4.38;3.55;;;28.90;99.90;;;;;;4972125;28;20027;-41
2022/07/09 08:24:33;;;;;;;3.10;2.60;;;28.90;99.90;;;;;;4972051;28;20027;-41
2022/07/09 08:26:59;;;;;;;3.38;2.97;;;29.00;99.90;;;;;;4971937;28;20057;-41
2022/07/09 08:29:25;;;;;;;4.47;2.97;;;29.00;99.90;;;;;;4971832;28;20047;-41
2022/07/09 08:31:51;;;;;;;5.07;3.63;;;29.00;99.90;;;;;;4971895;28;20081;-41
2022/07/09 08:34:17;;;;;;;3.63;2.92;;;29.00;99.90;;;;;;4971848;28;20465;-41
2022/07/09 08:36:44;;;;;;;4.15;3.10;;;29.00;99.90;;;;;;4973867;28;20058;-41
2022/07/09 08:39:10;;;;;;;3.60;2.67;;;29.00;99.90;;;;;;4975794;28;20027;-41
2022/07/09 08:41:36;;;;;;;4.00;2.97;;;29.00;99.90;;;;;;4975815;28;20248;-41
2022/07/09 08:44:06;;;;;;;4.20;3.40;;;29.00;99.90;;;;;;4975649;28;20101;-41
2022/07/09 08:46:32;;;;;;;4.68;3.35;;;29.00;99.90;;;;;;4975750;28;20027;-41
2022/07/09 08:48:59;;;;;;;4.40;3.33;;;29.00;99.90;;;;;;4975585;28;20061;-42
2022/07/09 08:51:26;;;;;;;5.18;3.83;;;29.00;99.90;;;;;;4975611;28;20057;-42
2022/07/09 08:53:55;;;;;;;4.33;3.40;;;29.00;99.90;;;;;;4975568;28;20030;-42
2022/07/09 08:56:20;;;;;;;4.28;3.25;;;29.00;99.90;;;;;;4975845;28;20693;-42
2022/07/09 08:58:46;;;;;;;5.63;3.70;;;29.00;99.90;;;;;;4975852;28;20122;-42
2022/07/09 09:01:14;;;;;;;4.30;3.20;;;29.00;99.90;;;;;;4975346;28;20493;-42
2022/07/09 09:03:40;;;;;;;;;;;29.00;99.90;;;;;;4976011;28;20018;-41
2022/07/09 09:06:08;;;;;;;4.30;3.53;;;29.00;99.90;;;;;;4975658;28;19906;-41
2022/07/09 09:08:39;;;;;;;4.38;3.55;;;29.10;99.90;;;;;;4975257;28;20031;-42
2022/07/09 09:11:23;;;;;;;4.47;3.60;;;29.10;99.90;;;;;;4975410;28;20058;-42
2022/07/09 09:13:50;;;;;;;4.10;3.20;;;29.10;99.90;;;;;;4975725;28;20473;-42
2022/07/09 09:16:17;;;;;;;6.72;4.18;;;29.00;99.90;;;;;;4975440;28;20126;-41
2022/07/09 09:18:45;;;;;;;4.60;3.45;;;29.10;99.90;;;;;;4975138;28;20481;-42
2022/07/09 09:21:11;;;;;;;3.80;3.03;;;29.00;99.90;;;;;;4975077;28;20113;-42
2022/07/09 09:23:40;;;;;;;4.70;3.53;;;29.10;99.90;;;;;;4975062;28;20026;-42
2022/07/09 09:26:26;;;;;;;4.25;3.40;;;29.10;99.90;;;;;;4957614;28;20031;-42
2022/07/09 09:28:55;;;;;;;3.10;2.80;;;29.10;99.90;;;;;;4975252;28;20023;-42
2022/07/09 09:31:21;;;;;;;4.10;3.70;;;29.10;99.90;;;;;;4975227;28;20338;-42
2022/07/09 09:33:48;;;;;;;4.03;3.25;;;29.10;99.90;;;;;;4975042;28;20145;-41
2022/07/09 09:36:34;;;;;;;5.68;3.15;;;29.10;99.90;;;;;;4974851;28;20062;-41
2022/07/09 09:39:14;;;;;;;3.85;3.00;;;29.10;99.90;;;;;;4975039;28;20030;-41
2022/07/09 09:41:42;;;;;;;4.32;2.83;;;29.10;99.90;;;;;;4974810;28;20034;-42
2022/07/09 09:44:13;;;;;;;4.55;3.38;;;29.10;99.90;;;;;;4974878;28;20077;-42
2022/07/09 09:46:41;;;;;;;4.30;3.40;;;29.10;99.90;;;;;;4974614;28;20023;-42
2022/07/09 09:49:10;;;;;;;4.40;3.22;;;29.10;99.90;;;;;;4973758;28;20035;-42
2022/07/09 09:51:49;;;;;;;3.92;3.22;;;29.10;99.90;;;;;;4974708;28;20084;-41
2022/07/09 09:54:16;;;;;;;3.67;3.05;;;29.10;99.90;;;;;;4974415;28;20534;-41
2022/07/09 09:56:43;;;;;;;;;;;29.10;99.90;;;;;;4974907;28;20027;-42
2022/07/09 09:59:10;;;;;;;3.97;3.15;;;29.10;99.90;;;;;;4974596;28;19914;-42
2022/07/09 10:01:37;;;;;;;4.03;3.25;;;29.10;99.90;;;;;;4974369;28;20547;-41
2022/07/09 10:04:03;;;;;;;3.20;2.60;;;29.10;99.90;;;;;;4974372;28;20477;-42
2022/07/09 10:06:29;;;;;;;3.83;2.80;;;29.10;99.90;;;;;;4974517;28;20027;-41
2022/07/09 10:08:56;;;;;;;4.93;3.20;;;29.10;99.90;;;;;;4957180;28;20023;-42
2022/07/09 10:11:22;;;;;;;3.53;3.15;;;29.10;99.90;;;;;;4974532;28;20033;-42
2022/07/09 10:13:56;;;;;;;4.97;3.50;;;29.20;99.90;;;;;;4974284;28;20051;-41
2022/07/09 10:16:34;;;;;;;3.67;2.83;;;29.20;99.90;;;;;;4957072;28;20051;-41
2022/07/09 10:18:59;;;;;;;4.40;2.88;;;29.20;99.90;;;;;;4974218;28;20393;-41
2022/07/09 10:21:37;;;;;;;4.40;2.83;;;29.20;99.90;;;;;;4974439;28;20037;-41
2022/07/09 10:24:09;;;;;;;3.60;2.85;;;29.20;99.90;;;;;;4974145;28;20019;-41
2022/07/09 10:26:42;;;;;;;3.60;2.80;;;29.20;99.90;;;;;;4974215;28;20045;-41
2022/07/09 10:29:53;;;;;;;4.72;2.80;;;29.20;99.90;;;;;;4974117;28;20031;-42
2022/07/09 10:32:29;;;;;;;4.30;2.90;;;29.20;99.90;;;;;;4929527;28;20031;-41
2022/07/09 10:35:06;;;;;;;3.53;2.58;;;29.20;99.90;;;;;;4974084;28;20465;-41
2022/07/09 10:37:42;;;;;;;4.28;2.90;;;29.20;99.90;;;;;;4973868;28;20473;-41
2022/07/09 10:40:16;;;;;;;4.03;2.70;;;29.20;99.90;;;;;;4973879;28;20019;-42
2022/07/09 10:42:59;;;;;;;4.13;2.80;;;29.20;99.90;;;;;;4973703;28;20034;-41
2022/07/09 10:45:27;;;;;;;2.78;2.40;;;29.20;99.90;;;;;;4973911;28;20037;-41
2022/07/09 10:47:58;;;;;;;5.15;2.88;;;29.20;99.90;;;;;;4973857;28;20015;-41
2022/07/09 10:50:27;;;;;;;5.32;2.92;;;29.20;99.90;;;;;;4973725;28;20039;-41
2022/07/09 10:52:53;;;;;;;4.38;2.70;;;29.20;99.90;;;;;;4973964;28;20063;-41
2022/07/09 10:55:21;;;;;;;3.40;2.30;;;29.30;99.90;;;;;;4973490;28;20031;-41
2022/07/09 10:57:51;;;;;;;4.07;2.67;;;29.30;99.90;;;;;;4973640;28;20069;-41
2022/07/09 11:00:25;;;;;;;2.75;2.22;;;29.20;99.90;;;;;;4973104;28;20069;-41
2022/07/09 11:03:00;;;;;;;2.80;2.30;;;29.30;99.90;;;;;;4955988;28;20031;-41
2022/07/09 11:05:33;;;;;;;3.28;2.30;;;29.30;99.90;;;;;;4973639;28;20440;-41
2022/07/09 11:08:05;;;;;;;3.20;2.35;;;29.30;99.90;;;;;;4955953;28;20030;-41
2022/07/09 11:10:36;;;;;;;2.67;2.10;;;29.30;99.90;;;;;;4973193;28;20035;-41
2022/07/09 11:13:03;;;;;;;3.03;2.60;;;29.30;99.90;;;;;;4973170;28;20027;-41
2022/07/09 11:15:34;;;;;;;3.75;2.40;;;29.30;99.90;;;;;;4973269;28;20026;-41
2022/07/09 11:18:01;;;;;;;3.63;2.65;;;29.30;99.90;;;;;;4973033;28;20638;-42
2022/07/09 11:20:28;;;;;;;3.33;2.60;;;29.30;99.90;;;;;;4973403;28;20019;-41
2022/07/09 11:22:59;;;;;;;3.13;2.65;;;29.30;99.90;;;;;;4973515;28;20034;-41
2022/07/09 11:25:26;;;;;;;4.07;2.92;;;29.30;99.90;;;;;;4973133;28;20026;-41
2022/07/09 11:27:57;;;;;;;2.85;2.45;;;29.30;99.90;;;;;;4972790;28;20027;-41
2022/07/09 11:30:23;;;;;;;3.92;2.40;;;29.40;99.90;;;;;;4972823;28;20035;-41
2022/07/09 11:32:50;;;;;;;3.90;2.20;;;29.40;99.90;;;;;;4972625;28;20035;-41
2022/07/09 11:35:35;;;;;;;3.63;2.80;;;29.40;99.90;;;;;;4972787;28;20155;-41
2022/07/09 11:38:03;;;;;;;3.30;2.20;;;29.40;99.90;;;;;;4972758;28;20022;-41
2022/07/09 11:40:30;;;;;;;2.70;2.15;;;29.40;99.90;;;;;;4955910;28;20050;-41
2022/07/09 11:42:56;;;;;;;2.97;2.33;;;29.40;99.90;;;;;;4972903;28;20037;-41
2022/07/09 11:45:26;;;;;;;3.22;2.60;;;29.40;99.90;;;;;;4972559;28;20035;-41
2022/07/09 11:48:10;;;;;;;3.25;2.58;;;29.40;99.90;;;;;;4972687;28;20026;-41
2022/07/09 11:50:46;;;;;;;3.65;2.30;;;29.40;99.90;;;;;;4972644;28;20148;-42
2022/07/09 11:53:27;;;;;;;2.95;2.30;;;29.40;99.90;;;;;;4972554;28;20490;-42
2022/07/09 11:56:00;;;;;;;3.03;2.45;;;29.40;99.90;;;;;;4972621;28;20092;-42
2022/07/09 11:58:27;;;;;;;2.78;2.45;;;29.40;99.90;;;;;;4972733;28;20489;-42
2022/07/09 12:00:53;;;;;;;3.78;2.85;;;29.40;99.90;;;;;;4972585;28;20457;-43
2022/07/09 12:03:26;;;;;;;3.78;2.30;;;29.40;99.90;;;;;;4972588;28;20102;-42
2022/07/09 12:05:52;;;;;;;6.53;2.88;;;29.40;99.90;;;;;;4972528;28;20026;-42
2022/07/09 12:08:28;;;;;;;3.90;3.13;;;29.50;99.90;;;;;;4972440;28;20388;-42
2022/07/09 12:10:54;;;;;;;2.88;2.58;;;29.40;99.90;;;;;;4971759;28;20038;-43
2022/07/09 12:13:20;;;;;;;3.13;2.83;;;29.50;99.90;;;;;;4972284;28;20086;-42
2022/07/09 12:15:46;;;;;;;5.53;2.78;;;29.50;99.90;;;;;;4972259;28;20035;-42
2022/07/09 12:18:12;;;;;;;3.45;2.90;;;29.50;99.90;;;;;;4972553;28;20154;-42
2022/07/09 12:20:37;;;;;;;4.55;2.95;;;29.50;99.90;;;;;;4972363;28;20505;-42
2022/07/09 12:23:03;;;;;;;4.28;2.88;;;29.50;99.90;;;;;;4972225;28;20023;-42
2022/07/09 12:25:29;;;;;;;4.55;3.10;;;29.50;99.90;;;;;;4972344;28;20031;-42
2022/07/09 12:27:55;;;;;;;5.32;3.30;;;29.50;99.90;;;;;;4972205;28;20066;-42
2022/07/09 12:30:20;;;;;;;4.32;2.63;;;29.50;99.90;;;;;;4972097;28;20043;-42
2022/07/09 12:32:47;;;;;;;7.40;3.13;;;29.50;99.90;;;;;;4972232;28;20034;-42
2022/07/09 12:35:13;;;;;;;3.65;2.67;;;29.50;99.90;;;;;;4972059;28;20158;-42
2022/07/09 12:37:40;;;;;;;6.85;2.90;;;29.60;99.90;;;;;;4972071;28;20362;-42
2022/07/09 12:40:07;;;;;;;3.33;2.72;;;29.60;99.90;;;;;;4972138;28;20139;-42
2022/07/09 12:42:34;;;;;;;2.63;2.42;;;29.60;99.90;;;;;;4972035;28;20098;-42
2022/07/09 12:45:00;;;;;;;4.55;2.75;;;29.50;99.90;;;;;;4972480;28;20046;-42
2022/07/09 12:47:26;;;;;;;4.40;3.03;;;29.50;99.90;;;;;;4971949;28;20030;-42
2022/07/09 12:49:52;;;;;;;4.50;3.10;;;29.50;99.90;;;;;;4972045;28;20039;-42